createdAt,value
2019-05-15T00:01:33.540Z,7.40
2019-05-15T00:04:01.137Z,7.30
2019-05-15T00:06:28.714Z,7.30
2019-05-15T00:08:58.664Z,7.20
2019-05-15T00:11:25.810Z,7.10
2019-05-15T00:13:53.677Z,7.10
2019-05-15T00:16:21.228Z,7.10
2019-05-15T00:18:48.424Z,7.10
2019-05-15T00:21:17.851Z,7.10
2019-05-15T00:23:45.225Z,7.00
2019-05-15T00:26:12.729Z,7.00
2019-05-15T00:28:39.963Z,6.90
2019-05-15T00:31:09.002Z,6.90
2019-05-15T00:33:39.108Z,6.90
2019-05-15T00:36:05.940Z,6.80
2019-05-15T00:38:33.499Z,6.80
2019-05-15T00:41:00.761Z,6.70
2019-05-15T00:43:29.125Z,6.70
2019-05-15T00:45:58.617Z,6.70
2019-05-15T00:48:29.050Z,6.60
2019-05-15T00:50:55.591Z,6.60
2019-05-15T00:53:23.014Z,6.60
2019-05-15T00:55:50.668Z,6.50
2019-05-15T00:58:19.913Z,6.50
2019-05-15T01:00:48.692Z,6.50
2019-05-15T01:03:18.211Z,6.40
2019-05-15T01:05:47.847Z,6.40
2019-05-15T01:08:15.351Z,6.30
2019-05-15T01:10:42.930Z,6.40
2019-05-15T01:13:10.584Z,6.30
2019-05-15T01:15:39.066Z,6.30
2019-05-15T01:18:06.299Z,6.20
2019-05-15T01:20:33.774Z,6.20
2019-05-15T01:23:01.212Z,6.20
2019-05-15T01:25:28.476Z,6.20
2019-05-15T01:27:55.776Z,6.10
2019-05-15T01:30:23.127Z,6.10
2019-05-15T01:32:50.462Z,6.00
2019-05-15T01:35:18.111Z,6.00
2019-05-15T01:37:45.719Z,6.00
2019-05-15T01:40:13.547Z,6.00
2019-05-15T01:42:41.065Z,6.00
2019-05-15T01:45:09.026Z,6.00
2019-05-15T01:47:38.577Z,5.90
2019-05-15T01:50:06.078Z,5.90
2019-05-15T01:52:33.455Z,5.80
2019-05-15T01:55:01.055Z,5.80
2019-05-15T01:57:28.843Z,5.80
2019-05-15T02:00:00.279Z,5.70
2019-05-15T02:02:25.341Z,5.70
2019-05-15T02:04:52.639Z,5.70
2019-05-15T02:07:20.343Z,5.70
2019-05-15T02:09:49.199Z,5.70
2019-05-15T02:12:18.983Z,5.70
2019-05-15T02:14:48.402Z,5.60
2019-05-15T02:17:15.345Z,5.60
2019-05-15T02:19:42.442Z,5.50
2019-05-15T02:22:09.545Z,5.50
2019-05-15T02:24:38.999Z,5.40
2019-05-15T02:27:08.869Z,5.40
2019-05-15T02:29:37.844Z,5.40
2019-05-15T02:32:05.411Z,5.40
2019-05-15T02:34:33.010Z,5.30
2019-05-15T02:37:00.495Z,5.20
2019-05-15T02:39:28.862Z,5.20
2019-05-15T02:41:59.296Z,5.20
2019-05-15T02:44:28.896Z,5.10
2019-05-15T02:46:55.013Z,5.10
2019-05-15T02:49:22.213Z,5.00
2019-05-15T02:51:49.565Z,5.00
2019-05-15T02:54:19.543Z,5.00
2019-05-15T02:56:46.074Z,4.90
2019-05-15T02:59:14.429Z,4.90
2019-05-15T03:01:41.831Z,4.80
2019-05-15T03:04:09.464Z,4.80
2019-05-15T03:06:38.942Z,4.80
2019-05-15T03:09:09.159Z,4.70
2019-05-15T03:11:35.348Z,4.70
2019-05-15T03:14:02.722Z,4.60
2019-05-15T03:16:30.609Z,4.60
2019-05-15T03:18:59.856Z,4.60
2019-05-15T03:21:29.475Z,4.60
2019-05-15T03:23:59.417Z,4.60
2019-05-15T03:26:26.122Z,4.60
2019-05-15T03:28:53.670Z,4.60
2019-05-15T03:31:40.797Z,4.60
2019-05-15T03:33:54.401Z,4.60
2019-05-15T03:36:23.085Z,4.60
2019-05-15T03:38:49.866Z,4.60
2019-05-15T03:41:19.522Z,4.60
2019-05-15T03:43:49.495Z,4.60
2019-05-15T03:46:15.709Z,4.60
2019-05-15T03:48:43.315Z,4.60
2019-05-15T03:51:11.319Z,4.50
2019-05-15T03:53:40.054Z,4.50
2019-05-15T03:56:09.714Z,4.50
2019-05-15T03:58:40.189Z,4.50
2019-05-15T04:01:27.623Z,4.40
2019-05-15T04:03:38.989Z,4.40
2019-05-15T04:06:05.641Z,4.40
2019-05-15T04:08:32.856Z,4.40
2019-05-15T04:11:00.104Z,4.40
2019-05-15T04:13:30.098Z,4.50
2019-05-15T04:15:59.238Z,4.50
2019-05-15T04:18:28.815Z,4.50
2019-05-15T04:20:54.907Z,4.60
2019-05-15T04:23:22.963Z,4.70
2019-05-15T04:25:51.702Z,4.70
2019-05-15T04:28:20.246Z,4.70
2019-05-15T04:30:49.550Z,4.70
2019-05-15T04:33:19.671Z,4.80
2019-05-15T04:35:46.063Z,4.80
2019-05-15T04:38:13.448Z,4.80
2019-05-15T04:40:40.680Z,4.90
2019-05-15T04:43:10.650Z,4.90
2019-05-15T04:45:39.227Z,4.90
2019-05-15T04:48:10.194Z,4.90
2019-05-15T04:50:39.572Z,5.00
2019-05-15T04:53:05.502Z,5.00
2019-05-15T04:55:32.796Z,5.10
2019-05-15T04:58:00.322Z,5.10
2019-05-15T05:00:49.561Z,5.20
2019-05-15T05:03:19.362Z,5.30
2019-05-15T05:05:45.431Z,5.40
2019-05-15T05:08:13.116Z,5.40
2019-05-15T05:10:40.804Z,5.50
2019-05-15T05:13:08.918Z,5.50
2019-05-15T05:15:38.862Z,5.60
2019-05-15T05:18:09.514Z,5.70
2019-05-15T05:20:38.105Z,5.70
2019-05-15T05:23:04.856Z,5.80
2019-05-15T05:25:32.087Z,5.80
2019-05-15T05:27:59.417Z,5.90
2019-05-15T05:30:29.174Z,5.90
2019-05-15T05:32:58.005Z,6.00
2019-05-15T05:35:27.593Z,6.10
2019-05-15T05:37:54.690Z,6.10
2019-05-15T05:40:21.911Z,6.20
2019-05-15T05:42:49.317Z,6.20
2019-05-15T05:45:18.134Z,6.20
2019-05-15T05:47:45.390Z,6.30
2019-05-15T05:50:18.255Z,6.30
2019-05-15T05:52:45.466Z,6.30
2019-05-15T05:55:12.897Z,6.40
2019-05-15T05:57:40.369Z,6.40
2019-05-15T06:00:09.298Z,6.50
2019-05-15T06:02:47.009Z,6.60
2019-05-15T06:05:07.966Z,6.70
2019-05-15T06:07:35.538Z,6.70
2019-05-15T06:10:04.111Z,6.80
2019-05-15T06:12:31.240Z,6.90
2019-05-15T06:14:58.593Z,7.00
2019-05-15T06:17:27.949Z,7.00
2019-05-15T06:19:55.068Z,7.10
2019-05-15T06:22:22.234Z,7.10
2019-05-15T06:24:49.585Z,7.20
2019-05-15T06:27:16.938Z,7.20
2019-05-15T06:29:44.173Z,7.30
2019-05-15T06:32:11.524Z,7.30
2019-05-15T06:34:40.099Z,7.40
2019-05-15T06:37:08.338Z,7.50
2019-05-15T06:39:39.132Z,7.60
2019-05-15T06:42:08.670Z,7.60
2019-05-15T06:44:35.524Z,7.80
2019-05-15T06:47:02.874Z,7.80
2019-05-15T06:49:30.157Z,7.90
2019-05-15T06:51:58.121Z,8.00
2019-05-15T06:54:25.564Z,8.10
2019-05-15T06:56:52.867Z,8.20
2019-05-15T06:59:20.082Z,8.20
2019-05-15T07:01:48.146Z,8.30
2019-05-15T07:04:18.022Z,8.40
2019-05-15T07:06:44.987Z,8.40
2019-05-15T07:09:12.501Z,8.30
2019-05-15T07:11:39.710Z,8.40
2019-05-15T07:14:08.839Z,8.40
2019-05-15T07:16:38.772Z,8.40
2019-05-15T07:19:07.912Z,8.50
2019-05-15T07:21:34.834Z,8.60
2019-05-15T07:24:02.257Z,8.60
2019-05-15T07:26:29.943Z,8.60
2019-05-15T07:28:59.348Z,8.60
2019-05-15T07:31:28.707Z,8.60
2019-05-15T07:33:55.604Z,8.70
2019-05-15T07:36:23.170Z,8.80
2019-05-15T07:38:50.358Z,9.00
2019-05-15T07:41:18.455Z,9.00
2019-05-15T07:43:46.146Z,9.00
2019-05-15T07:46:13.492Z,9.10
2019-05-15T07:48:43.863Z,9.10
2019-05-15T07:51:11.399Z,9.10
2019-05-15T07:53:39.137Z,9.20
2019-05-15T07:56:11.090Z,9.20
2019-05-15T07:58:38.643Z,9.20
2019-05-15T08:01:06.274Z,9.30
2019-05-15T08:03:33.552Z,9.20
2019-05-15T08:06:03.112Z,9.30
2019-05-15T08:08:31.602Z,9.40
2019-05-15T08:10:58.951Z,9.40
2019-05-15T08:13:28.743Z,9.40
2019-05-15T08:15:57.853Z,9.40
2019-05-15T08:18:24.856Z,9.50
2019-05-15T08:20:52.126Z,9.50
2019-05-15T08:23:19.754Z,9.60
2019-05-15T08:25:48.483Z,9.60
2019-05-15T08:28:18.685Z,9.60
2019-05-15T08:30:45.546Z,9.70
2019-05-15T08:33:13.060Z,9.70
2019-05-15T08:35:44.465Z,9.70
2019-05-15T08:38:10.047Z,9.80
2019-05-15T08:40:40.993Z,9.90
2019-05-15T08:43:11.442Z,9.90
2019-05-15T08:45:39.173Z,9.90
2019-05-15T08:48:05.827Z,9.90
2019-05-15T08:50:33.036Z,9.90
2019-05-15T08:53:00.436Z,10.00
2019-05-15T08:55:28.176Z,10.20
2019-05-15T08:58:04.475Z,10.20
2019-05-15T09:00:25.195Z,10.20
2019-05-15T09:02:52.745Z,10.20
2019-05-15T09:05:20.051Z,10.30
2019-05-15T09:07:48.647Z,10.30
2019-05-15T09:10:18.412Z,10.30
2019-05-15T09:12:45.926Z,10.40
2019-05-15T09:15:13.898Z,10.40
2019-05-15T09:17:41.388Z,10.50
2019-05-15T09:20:09.350Z,10.50
2019-05-15T09:22:38.294Z,10.60
2019-05-15T09:25:08.740Z,10.50
2019-05-15T09:27:35.392Z,10.70
2019-05-15T09:30:04.740Z,10.70
2019-05-15T09:32:32.103Z,10.70
2019-05-15T09:34:59.637Z,10.70
2019-05-15T09:37:28.737Z,10.70
2019-05-15T09:39:58.335Z,10.60
2019-05-15T09:42:25.358Z,10.50
2019-05-15T09:44:52.735Z,10.50
2019-05-15T09:47:19.925Z,10.60
2019-05-15T09:49:48.515Z,10.70
2019-05-15T09:52:20.001Z,10.80
2019-05-15T09:54:45.381Z,10.90
2019-05-15T09:57:12.618Z,11.00
2019-05-15T09:59:40.186Z,11.00
2019-05-15T10:02:09.186Z,10.90
2019-05-15T10:04:38.863Z,10.90
2019-05-15T10:07:08.229Z,11.00
2019-05-15T10:09:35.574Z,11.10
2019-05-15T10:12:02.830Z,11.00
2019-05-15T10:14:30.196Z,11.00
2019-05-15T10:16:58.397Z,11.10
2019-05-15T10:19:25.909Z,11.10
2019-05-15T10:21:53.483Z,11.10
2019-05-15T10:24:20.984Z,11.10
2019-05-15T10:26:49.098Z,11.20
2019-05-15T10:29:16.736Z,11.20
2019-05-15T10:31:44.180Z,11.20
2019-05-15T10:34:11.449Z,11.20
2019-05-15T10:36:38.901Z,11.20
2019-05-15T10:39:08.379Z,11.20
2019-05-15T10:41:38.673Z,11.20
2019-05-15T10:44:05.535Z,11.20
2019-05-15T10:46:32.983Z,11.20
2019-05-15T10:49:00.565Z,11.30
2019-05-15T10:51:28.649Z,11.40
2019-05-15T10:53:56.223Z,11.60
2019-05-15T10:56:23.553Z,11.70
2019-05-15T10:58:50.929Z,11.70
2019-05-15T11:01:19.163Z,11.60
2019-05-15T11:03:49.248Z,11.60
2019-05-15T11:06:18.356Z,11.60
2019-05-15T11:08:50.955Z,11.70
2019-05-15T11:11:15.504Z,11.80
2019-05-15T11:13:42.791Z,11.70
2019-05-15T11:16:09.998Z,11.70
2019-05-15T11:18:39.317Z,11.70
2019-05-15T11:21:08.221Z,11.80
2019-05-15T11:23:39.539Z,11.80
2019-05-15T11:26:05.246Z,11.90
2019-05-15T11:28:33.490Z,12.00
2019-05-15T11:31:00.771Z,11.90
2019-05-15T11:33:29.196Z,12.00
2019-05-15T11:36:04.419Z,12.00
2019-05-15T11:38:28.694Z,12.00
2019-05-15T11:40:55.273Z,12.00
2019-05-15T11:43:22.645Z,11.80
2019-05-15T11:45:50.005Z,11.90
2019-05-15T11:48:20.667Z,12.00
2019-05-15T11:50:46.815Z,12.00
2019-05-15T11:53:14.194Z,12.10
2019-05-15T11:55:41.460Z,12.20
2019-05-15T11:58:09.323Z,12.20
2019-05-15T12:00:38.442Z,12.40
2019-05-15T12:03:08.713Z,12.40
2019-05-15T12:05:35.269Z,12.40
2019-05-15T12:08:02.444Z,12.50
2019-05-15T12:10:29.777Z,12.50
2019-05-15T12:12:57.195Z,12.40
2019-05-15T12:15:24.548Z,12.40
2019-05-15T12:17:51.877Z,12.40
2019-05-15T12:20:19.598Z,12.50
2019-05-15T12:22:48.541Z,12.50
2019-05-15T12:25:16.144Z,12.60
2019-05-15T12:27:43.461Z,12.60
2019-05-15T12:30:11.930Z,12.60
2019-05-15T12:32:40.449Z,12.60
2019-05-15T12:35:09.207Z,12.70
2019-05-15T12:37:39.752Z,12.70
2019-05-15T13:00:07.168Z,13.00
2019-05-15T13:02:34.383Z,13.00
2019-05-15T13:05:01.773Z,12.90
2019-05-15T13:07:30.978Z,13.10
2019-05-15T13:09:58.461Z,13.20
2019-05-15T13:12:28.570Z,13.10
2019-05-15T13:14:55.195Z,13.10
2019-05-15T13:17:22.437Z,13.10
2019-05-15T13:19:49.863Z,13.10
2019-05-15T13:22:19.479Z,13.10
2019-05-15T13:24:48.308Z,13.20
2019-05-15T13:27:18.063Z,13.20
2019-05-15T13:29:45.120Z,13.20
2019-05-15T13:32:12.705Z,13.20
2019-05-15T13:34:39.894Z,13.20
2019-05-15T13:37:08.831Z,13.30
2019-05-15T13:39:38.909Z,13.30
2019-05-15T13:42:05.552Z,13.20
2019-05-15T13:44:32.983Z,13.20
2019-05-15T13:47:00.227Z,13.10
2019-05-15T13:49:28.166Z,13.10
2019-05-15T13:51:55.655Z,13.20
2019-05-15T13:54:23.002Z,13.30
2019-05-15T13:56:50.267Z,13.30
2019-05-15T13:59:17.765Z,13.30
2019-05-15T14:01:45.057Z,13.30
2019-05-15T14:04:12.243Z,13.20
2019-05-15T14:06:39.540Z,13.30
2019-05-15T14:09:08.812Z,13.30
2019-05-15T14:11:38.797Z,13.30
2019-05-15T14:14:05.970Z,13.30
2019-05-15T14:16:33.279Z,13.30
2019-05-15T14:19:01.001Z,13.30
2019-05-15T14:21:28.833Z,13.20
2019-05-15T14:23:58.783Z,13.20
2019-05-15T14:26:25.358Z,13.20
2019-05-15T14:28:52.550Z,13.30
2019-05-15T14:31:19.888Z,13.40
2019-05-15T14:33:48.762Z,13.50
2019-05-15T14:36:18.515Z,13.50
2019-05-15T14:38:45.851Z,13.60
2019-05-15T14:41:13.293Z,13.60
2019-05-15T14:43:40.931Z,13.50
2019-05-15T14:46:08.393Z,13.40
2019-05-15T14:48:35.783Z,13.40
2019-05-15T14:51:03.109Z,13.40
2019-05-15T14:53:30.514Z,13.40
2019-05-15T14:56:00.315Z,13.50
2019-05-15T14:58:27.469Z,13.60
2019-05-15T15:00:55.444Z,13.70
2019-05-15T15:03:22.724Z,13.70
2019-05-15T15:05:49.899Z,13.70
2019-05-15T15:08:24.374Z,13.70
2019-05-15T15:10:46.779Z,13.80
2019-05-15T15:13:14.166Z,13.90
2019-05-15T15:15:42.366Z,14.00
2019-05-15T15:18:10.192Z,13.90
2019-05-15T15:20:38.103Z,13.80
2019-05-15T15:23:08.262Z,13.90
2019-05-15T15:25:35.215Z,13.90
2019-05-15T15:28:02.551Z,13.70
2019-05-15T15:30:30.233Z,13.70
2019-05-15T15:32:58.026Z,13.70
2019-05-15T15:35:25.325Z,13.70
2019-05-15T15:37:53.243Z,13.60
2019-05-15T15:40:20.594Z,13.60
2019-05-15T15:42:48.540Z,13.50
2019-05-15T15:45:19.308Z,13.50
2019-05-15T15:47:48.140Z,13.50
2019-05-15T15:50:18.344Z,13.40
2019-05-15T15:52:45.719Z,13.40
2019-05-15T15:55:12.990Z,13.30
2019-05-15T15:57:40.385Z,13.30
2019-05-15T16:00:09.972Z,13.40
2019-05-15T16:02:41.051Z,13.40
2019-05-15T16:05:09.011Z,13.40
2019-05-15T16:07:37.985Z,13.40
2019-05-15T16:10:08.123Z,13.50
2019-05-15T16:12:35.238Z,13.50
2019-05-15T16:15:04.457Z,13.60
2019-05-15T16:17:31.839Z,13.50
2019-05-15T16:19:59.076Z,13.40
2019-05-15T16:22:28.393Z,13.30
2019-05-15T16:24:58.766Z,13.30
2019-05-15T16:27:25.320Z,13.10
2019-05-15T16:29:52.614Z,13.00
2019-05-15T16:32:21.922Z,12.90
2019-05-15T16:34:49.232Z,13.00
2019-05-15T16:37:18.802Z,12.90
2019-05-15T16:39:46.305Z,12.90
2019-05-15T16:42:13.925Z,12.90
2019-05-15T16:44:41.278Z,12.70
2019-05-15T16:47:09.251Z,12.80
2019-05-15T16:49:38.982Z,12.80
2019-05-15T16:52:09.012Z,12.70
2019-05-15T16:54:37.860Z,12.80
2019-05-15T16:57:05.023Z,12.70
2019-05-15T16:59:35.718Z,12.70
2019-05-15T17:02:01.400Z,12.60
2019-05-15T17:04:29.090Z,12.60
2019-05-15T17:06:58.531Z,12.60
2019-05-15T17:09:27.997Z,12.60
2019-05-15T17:11:55.357Z,12.60
2019-05-15T17:14:23.325Z,12.60
2019-05-15T17:16:50.907Z,12.60
2019-05-15T17:19:18.430Z,12.60
2019-05-15T17:21:47.994Z,12.60
2019-05-15T17:24:15.011Z,12.50
2019-05-15T17:26:42.466Z,12.60
2019-05-15T17:29:10.085Z,12.50
2019-05-15T17:31:38.054Z,12.40
2019-05-15T17:34:05.811Z,12.40
2019-05-15T17:36:33.517Z,12.40
2019-05-15T17:39:01.660Z,12.40
2019-05-15T17:41:30.470Z,12.40
2019-05-15T17:43:58.133Z,12.30
2019-05-15T17:46:25.567Z,12.30
2019-05-15T17:48:55.501Z,12.30
2019-05-15T17:51:22.047Z,12.20
2019-05-15T17:53:49.416Z,12.20
2019-05-15T17:56:16.686Z,12.20
2019-05-15T17:58:44.038Z,12.10
2019-05-15T18:01:11.182Z,12.10
2019-05-15T18:03:39.233Z,12.10
2019-05-15T18:06:06.922Z,12.10
2019-05-15T18:08:34.791Z,12.00
2019-05-15T18:11:02.424Z,12.00
2019-05-15T18:13:29.815Z,12.00
2019-05-15T18:16:02.834Z,11.90
2019-05-15T18:18:26.686Z,11.80
2019-05-15T18:20:54.128Z,11.80
2019-05-15T18:23:23.575Z,11.80
2019-05-15T18:25:51.513Z,11.70
2019-05-15T18:28:19.210Z,11.70
2019-05-15T18:30:47.930Z,11.60
2019-05-15T18:33:15.653Z,11.60
2019-05-15T18:35:43.139Z,11.50
2019-05-15T18:38:10.379Z,11.40
2019-05-15T18:40:38.359Z,11.40
2019-05-15T18:43:06.142Z,11.30
2019-05-15T18:45:33.940Z,11.20
2019-05-15T18:48:01.476Z,11.20
2019-05-15T18:50:28.997Z,11.10
2019-05-15T18:52:58.388Z,11.10
2019-05-15T18:55:25.607Z,11.10
2019-05-15T18:57:53.074Z,10.90
2019-05-15T19:00:20.703Z,10.90
2019-05-15T19:02:48.251Z,10.90
2019-05-15T19:05:18.397Z,10.80
2019-05-15T19:07:45.310Z,10.70
2019-05-15T19:10:18.516Z,10.70
2019-05-15T19:12:45.817Z,10.60
2019-05-15T19:15:13.282Z,10.50
2019-05-15T19:17:41.199Z,10.50
2019-05-15T19:20:09.162Z,10.50
2019-05-15T19:22:40.420Z,10.50
2019-05-15T19:25:08.587Z,10.40
2019-05-15T19:27:35.346Z,10.40
2019-05-15T19:30:03.210Z,10.30
2019-05-15T19:32:31.068Z,10.30
2019-05-15T19:34:59.005Z,10.30
2019-05-15T19:37:28.647Z,10.20
2019-05-15T19:39:55.778Z,10.20
2019-05-15T19:42:23.170Z,10.10
2019-05-15T19:44:50.781Z,10.10
2019-05-15T19:47:18.672Z,10.00
2019-05-15T19:49:48.274Z,10.00
2019-05-15T19:52:17.763Z,10.00
2019-05-15T19:54:44.669Z,9.90
2019-05-15T19:57:12.249Z,9.80
2019-05-15T19:59:39.822Z,9.80
2019-05-15T20:02:08.567Z,9.70
2019-05-15T20:04:38.530Z,9.70
2019-05-15T20:07:08.000Z,9.60
2019-05-15T20:09:35.480Z,9.60
2019-05-15T20:12:03.000Z,9.50
2019-05-15T20:14:30.538Z,9.50
2019-05-15T20:16:58.972Z,9.50
2019-05-15T20:19:28.652Z,9.40
2019-05-15T20:21:56.530Z,9.40
2019-05-15T20:24:25.476Z,9.40
2019-05-15T20:26:52.943Z,9.40
2019-05-15T20:29:20.535Z,9.30
2019-05-15T20:31:48.446Z,9.20
2019-05-15T20:34:16.046Z,9.20
2019-05-15T20:36:43.647Z,9.20
2019-05-15T20:39:10.978Z,9.10
2019-05-15T20:41:38.579Z,9.10
2019-05-15T20:44:05.987Z,9.10
2019-05-15T20:46:33.478Z,9.00
2019-05-15T20:49:00.956Z,9.00
2019-05-15T20:51:29.081Z,9.00
2019-05-15T20:53:57.816Z,9.00
2019-05-15T20:56:28.059Z,8.90
2019-05-15T20:58:55.043Z,8.90
2019-05-15T21:01:22.348Z,8.90
2019-05-15T21:03:51.041Z,8.90
2019-05-15T21:06:18.748Z,8.90
2019-05-15T21:08:46.638Z,8.90
2019-05-15T21:11:15.391Z,8.90
2019-05-15T21:13:42.666Z,8.80
2019-05-15T21:16:10.060Z,8.80
2019-05-15T21:18:41.426Z,8.80
2019-05-15T21:21:10.377Z,8.80
2019-05-15T21:23:38.656Z,8.80
2019-05-15T21:26:07.793Z,8.80
2019-05-15T21:28:35.255Z,8.70
2019-05-15T21:31:02.806Z,8.70
2019-05-15T21:33:30.776Z,8.70
2019-05-15T21:35:58.443Z,8.60
2019-05-15T21:38:28.237Z,8.60
2019-05-15T21:40:55.426Z,8.60
2019-05-15T21:43:22.858Z,8.50
2019-05-15T21:45:50.288Z,8.50
2019-05-15T21:48:18.433Z,8.50
2019-05-15T21:50:48.171Z,8.50
2019-05-15T21:53:15.267Z,8.50
2019-05-15T21:55:42.490Z,8.40
2019-05-15T21:58:09.924Z,8.40
2019-05-15T22:00:41.303Z,8.30
2019-05-15T22:03:08.766Z,8.30
2019-05-15T22:05:38.086Z,8.30
2019-05-15T22:08:07.695Z,8.20
2019-05-15T22:10:35.024Z,8.20
2019-05-15T22:13:03.232Z,8.20
2019-05-15T22:15:30.470Z,8.20
2019-05-15T22:17:57.715Z,8.20
2019-05-15T22:20:25.059Z,8.10
2019-05-15T22:22:52.542Z,8.10
2019-05-15T22:25:19.875Z,8.00
2019-05-15T22:27:48.661Z,8.00
2019-05-15T22:30:16.479Z,8.00
2019-05-15T22:32:43.857Z,8.00
2019-05-15T22:35:13.911Z,7.90
2019-05-15T22:37:41.818Z,7.90
2019-05-15T22:40:09.392Z,7.90
2019-05-15T22:42:38.891Z,7.80
2019-05-15T22:45:08.971Z,7.80
2019-05-15T22:47:36.873Z,7.70
2019-05-15T22:50:08.171Z,7.70
2019-05-15T22:52:38.551Z,7.70
2019-05-15T22:55:05.135Z,7.60
2019-05-15T22:57:32.563Z,7.60
2019-05-15T22:59:59.998Z,7.60
2019-05-15T23:02:27.272Z,7.50
2019-05-15T23:04:55.791Z,7.50
2019-05-15T23:07:23.427Z,7.50
2019-05-15T23:09:50.686Z,7.40
2019-05-15T23:12:18.293Z,7.40
2019-05-15T23:14:45.787Z,7.40
2019-05-15T23:17:13.248Z,7.30
2019-05-15T23:19:40.733Z,7.30
2019-05-15T23:22:08.423Z,7.30
2019-05-15T23:24:35.947Z,7.30
2019-05-15T23:27:03.261Z,7.20
2019-05-15T23:29:30.923Z,7.20
2019-05-15T23:31:58.471Z,7.10
2019-05-15T23:34:28.011Z,7.10
2019-05-15T23:36:57.585Z,7.00
2019-05-15T23:39:24.980Z,7.00
2019-05-15T23:41:52.187Z,7.00
2019-05-15T23:44:19.435Z,7.00
2019-05-15T23:46:48.706Z,6.90
2019-05-15T23:49:16.370Z,6.90
2019-05-15T23:51:43.673Z,6.90
2019-05-15T23:54:10.752Z,6.80
2019-05-15T23:56:38.892Z,6.80
2019-05-15T23:59:08.397Z,6.70
